Flight Track Log - Related Links

Times and Time Zones

All times are in EST time to prevent confusion due to time zone crossing. See the N911PJ flight status page for this flight to view local times or setup timezone preferences in your user account.

Time Position Orientation Groundspeed Altitude Reporting Facility
EST Latitude Longitude Course Direction KTS MPH feet Rate Location/Type
Thu 08:23:48 AM 44.0483 -103.0614 327° Northwest 128 147 3,700  Level Denver Center
Thu 08:23:54 AM 44.0508 -103.0636 327° Northwest 126 145 3,900 2,273 Climbing Denver Center
Thu 08:24:54 AM 44.0681 -103.1089 298° West 138 159 6,200 2,380 Climbing Denver Center
Thu 08:25:55 AM 44.0419 -103.1486 228° Southwest 157 181 8,700 2,328 Climbing Denver Center
Thu 08:26:50 AM 44.0167 -103.1844 226° Southwest 143 165 10,700 2,035 Climbing Denver Center
Thu 08:27:50 AM 43.9869 -103.2200 221° Southwest 147 169 12,600 1,934 Climbing Denver Center
Thu 08:28:51 AM 43.9489 -103.2642 220° Southwest 154 177 14,600 1,884 Climbing Denver Center
Thu 08:29:51 AM 43.9156 -103.3058 222° Southwest 164 189 16,400 1,934 Climbing Denver Center
Thu 08:30:52 AM 43.8817 -103.3475 222° Southwest 168 193 18,500 2,066 Climbing Denver Center
Thu 08:31:53 AM 43.8403 -103.3942 219° Southwest 170 196 20,600 1,835 Climbing Denver Center
Thu 08:32:53 AM 43.8086 -103.4375 225° Southwest 169 194 22,200 1,537 Climbing Denver Center
Thu 08:33:54 AM 43.7731 -103.4806 221° Southwest 175 201 23,700 1,574 Climbing Denver Center
Thu 08:34:55 AM 43.7297 -103.5314 220° Southwest 181 208 25,400 1,140 Climbing Denver Center
Thu 08:35:55 AM 43.6903 -103.5797 222° Southwest 196 226 26,000 298 Climbing Denver Center
Thu 08:36:56 AM 43.6447 -103.6350 221° Southwest 221 254 26,000  Level Denver Center
Thu 08:37:56 AM 43.5928 -103.6939 219° Southwest 244 281 26,000  Level Denver Center
Thu 08:38:57 AM 43.5325 -103.7664 221° Southwest 255 293 26,000  Level Denver Center
Thu 08:39:58 AM 43.4794 -103.8292 221° Southwest 261 300 26,000  Level Denver Center
Thu 08:40:58 AM 43.4267 -103.8911 220° Southwest 261 300 26,000  Level Denver Center
Thu 08:41:59 AM 43.3664 -103.9617 220° Southwest 257 296 26,000  Level Denver Center
Thu 08:43:00 AM 43.3142 -104.0219 220° Southwest 256 295 26,000  Level Denver Center
Thu 08:44:00 AM 43.2625 -104.0819 220° Southwest 255 293 26,000  Level Denver Center
Thu 08:45:01 AM 43.2019 -104.1528 220° Southwest 256 295 26,000  Level Denver Center
Thu 08:46:02 AM 43.1497 -104.2131 220° Southwest 256 295 26,000  Level Denver Center
Thu 08:47:02 AM 43.0989 -104.2722 220° Southwest 254 292 26,000  Level Denver Center
Thu 08:48:03 AM 43.0392 -104.3417 220° Southwest 253 291 26,000  Level Denver Center
Thu 08:49:04 AM 42.9883 -104.4006 220° Southwest 252 290 26,000  Level Denver Center
Thu 08:50:04 AM 42.9364 -104.4603 220° Southwest 253 291 26,000  Level Denver Center
Thu 08:51:05 AM 42.8761 -104.5300 220° Southwest 254 292 26,000  Level Denver Center
Thu 08:52:06 AM 42.8256 -104.5894 221° Southwest 254 292 26,000  Level Denver Center
Thu 08:53:06 AM 42.7742 -104.6483 220° Southwest 253 291 26,000  Level Denver Center
Thu 08:54:07 AM 42.7147 -104.7161 220° Southwest 252 290 26,000  Level Denver Center
Thu 08:55:08 AM 42.6644 -104.7733 220° Southwest 250 288 26,000  Level Denver Center
Thu 08:56:09 AM 42.6058 -104.8408 220° Southwest 250 288 26,000  Level Denver Center
Thu 08:57:09 AM 42.5553 -104.8978 220° Southwest 249 287 26,000  Level Denver Center
Thu 08:58:10 AM 42.5044 -104.9550 220° Southwest 249 287 26,000  Level Denver Center
Thu 08:59:11 AM 42.4444 -105.0219 219° Southwest 250 288 26,000  Level Denver Center
Thu 09:00:12 AM 42.3931 -105.0792 219° Southwest 251 289 26,000  Level Denver Center
Thu 09:01:12 AM 42.3417 -105.1381 220° Southwest 253 291 26,000  Level Denver Center
Thu 09:02:13 AM 42.2803 -105.2056 219° Southwest 256 295 26,000  Level Denver Center
Thu 09:03:14 AM 42.2283 -105.2653 220° Southwest 256 295 26,000  Level Denver Center
Thu 09:04:15 AM 42.1761 -105.3231 219° Southwest 255 293 26,000  Level Denver Center
Thu 09:05:15 AM 42.1147 -105.3906 219° Southwest 255 293 26,000  Level Denver Center
Thu 09:06:16 AM 42.0631 -105.4483 220° Southwest 253 291 26,000  Level Denver Center
Thu 09:07:17 AM 42.0106 -105.5081 220° Southwest 256 295 26,000  Level Denver Center
Thu 09:08:18 AM 41.9486 -105.5750 219° Southwest 256 295 26,000  Level Denver Center
Thu 09:09:18 AM 41.8961 -105.6331 219° Southwest 256 295 26,000  Level Denver Center
Thu 09:10:19 AM 41.8419 -105.6906 218° Southwest 258 297 26,000  Level Denver Center
Thu 09:11:20 AM 41.7811 -105.7603 221° Southwest 259 298 26,000  Level Denver Center
Thu 09:12:21 AM 41.7258 -105.8181 218° Southwest 261 300 26,000  Level Denver Center
Thu 09:13:22 AM 41.6722 -105.8775 220° Southwest 262 302 26,000  Level Denver Center
Thu 09:14:22 AM 41.6089 -105.9467 219° Southwest 263 303 26,000  Level Denver Center
Thu 09:15:23 AM 41.5550 -106.0075 220° Southwest 264 304 26,000  Level Denver Center
Thu 09:16:24 AM 41.5000 -106.0686 220° Southwest 267 307 26,000  Level Denver Center
Thu 09:17:25 AM 41.4333 -106.1375 218° Southwest 270 311 26,000  Level Denver Center
Thu 09:18:26 AM 41.3794 -106.1956 219° Southwest 262 302 26,000  Level Denver Center
Thu 09:19:27 AM 41.3261 -106.2531 219° Southwest 258 297 26,000  Level Denver Center
Thu 09:20:40 AM 41.2686 -106.3158 219° Southwest 256 295 26,000  Level Denver Center
Thu 09:21:41 AM 41.1972 -106.3900 218° Southwest 255 293 26,000  Level Denver Center
Thu 09:22:42 AM 41.1464 -106.4469 220° Southwest 252 290 26,000  Level Denver Center
Thu 09:23:43 AM 41.0847 -106.5117 218° Southwest 252 290 26,000  Level Denver Center
Thu 09:24:43 AM 41.0319 -106.5681 219° Southwest 254 292 26,000  Level Denver Center
Thu 09:25:44 AM 40.9792 -106.6250 219° Southwest 254 292 26,000  Level Denver Center
Thu 09:26:45 AM 40.9172 -106.6906 219° Southwest 256 295 26,000  Level Denver Center
Thu 09:27:46 AM 40.8639 -106.7469 219° Southwest 257 296 26,000  Level Denver Center
Thu 09:28:47 AM 40.8078 -106.8064 219° Southwest 267 307 26,000  Level Denver Center
Thu 09:29:48 AM 40.7453 -106.8714 218° Southwest 264 304 26,000  Level Denver Center
Thu 09:30:49 AM 40.6872 -106.9339 219° Southwest 267 307 26,000  Level Denver Center
Thu 09:31:50 AM 40.6286 -106.9947 218° Southwest 269 310 26,000  Level Denver Center
Thu 09:32:51 AM 40.5706 -107.0544 218° Southwest 267 307 26,000  Level Denver Center
Thu 09:33:52 AM 40.5125 -107.1158 219° Southwest 267 307 26,000  Level Denver Center
Thu 09:34:53 AM 40.4508 -107.1806 219° Southwest 265 305 26,000  Level Denver Center
Thu 09:35:54 AM 40.3950 -107.2386 218° Southwest 267 307 26,000  Level Denver Center
Thu 09:36:55 AM 40.3303 -107.3050 218° Southwest 266 306 26,000  Level Denver Center
Thu 09:37:56 AM 40.2736 -107.3642 219° Southwest 269 310 26,000  Level Denver Center
Thu 09:38:57 AM 40.2169 -107.4222 218° Southwest 270 311 26,000  Level Denver Center
Thu 09:39:58 AM 40.1517 -107.4894 218° Southwest 269 310 26,000  Level Denver Center
Thu 09:40:59 AM 40.0953 -107.5467 218° Southwest 268 308 26,000  Level Denver Center
Thu 09:42:00 AM 40.0406 -107.6031 218° Southwest 262 302 26,000  Level Denver Center
Thu 09:43:01 AM 39.9769 -107.6692 219° Southwest 262 302 26,000  Level Denver Center
Thu 09:44:02 AM 39.9211 -107.7250 217° Southwest 263 303 26,000  Level Denver Center
Thu 09:45:03 AM 39.8653 -107.7819 218° Southwest 264 304 26,000 -49 Level Denver Center
Thu 09:46:04 AM 39.7986 -107.8500 218° Southwest 271 312 25,900 -738 Descending Denver Center
Thu 09:47:05 AM 39.7422 -107.9078 218° Southwest 272 313 24,500 -1,426 Descending Denver Center
Thu 09:48:06 AM 39.6836 -107.9681 218° Southwest 278 320 23,000 -1,561 Descending Denver Center
Thu 09:49:08 AM 39.6125 -108.0400 218° Southwest 286 329 21,300 -1,756 Descending Denver Center
Thu 09:50:09 AM 39.5514 -108.1031 219° Southwest 290 334 19,400 -1,967 Descending Denver Center
Thu 09:51:10 AM 39.4781 -108.1753 217° Southwest 295 339 17,300 -1,918 Descending Denver Center
Thu 09:52:11 AM 39.4192 -108.2358 218° Southwest 272 313 15,500 -1,721 Descending Denver Center
Thu 09:53:12 AM 39.3736 -108.2964 226° Southwest 251 289 13,800 -1,672 Descending Denver Center
Thu 09:54:13 AM 39.3317 -108.3531 226° Southwest 225 259 12,100 -1,317 Descending Denver Center
Thu 09:55:15 AM 39.2914 -108.4136 229° Southwest 200 230 11,100 -976 Descending Denver Center
Thu 09:56:16 AM 39.2569 -108.4647 229° Southwest 192 221 10,100 -1,082 Descending Denver Center
Thu 09:57:17 AM 39.2272 -108.5169 234° Southwest 183 211 8,900 -1,415 Descending Denver Center
Thu 09:58:19 AM 39.1933 -108.5556 221° Southwest 156 180 7,200 -1,561 Descending Denver Center
Thu 09:59:20 AM 39.1569 -108.5744 202° Southwest 157 181 5,700 -1,131 Descending Denver Center
Thu 10:00:21 AM 39.1353 -108.5453 134° Southeast 128 147 4,900 -439 Descending Denver Center
Thu 10:01:23 AM 39.1258 -108.5289 127° Southeast 92 106 4,800 -97 Descending Denver Center
Thu 10:03:00 AM 39.1224 -108.5267 North  Level Estimated

Login

Don't have an account? Register now (free) for customized features, flight alerts, and more!